sensor_id;sensor_type;location;lat;lon;timestamp;P1;durP1;ratioP1;P2;durP2;ratioP2
38220;SDS011;24023;51.280;7.148;2023-04-25T00:00:11;7.0;;;3.4;;
38220;SDS011;24023;51.280;7.148;2023-04-25T00:05:06;7.0;;;3.4;;
38220;SDS011;24023;51.280;7.148;2023-04-25T00:10:08;7.0;;;3.0;;
38220;SDS011;24023;51.280;7.148;2023-04-25T00:15:07;7.0;;;3.0;;
38220;SDS011;24023;51.280;7.148;2023-04-25T00:20:09;7.3;;;3.0;;
38220;SDS011;24023;51.280;7.148;2023-04-25T00:25:07;7.3;;;3.0;;
38220;SDS011;24023;51.280;7.148;2023-04-25T00:30:09;7.3;;;3.0;;
38220;SDS011;24023;51.280;7.148;2023-04-25T00:35:06;7.1;;;2.6;;
38220;SDS011;24023;51.280;7.148;2023-04-25T00:40:08;7.1;;;2.6;;
38220;SDS011;24023;51.280;7.148;2023-04-25T00:45:12;7.2;;;2.7;;
38220;SDS011;24023;51.280;7.148;2023-04-25T00:50:08;7.2;;;2.7;;
38220;SDS011;24023;51.280;7.148;2023-04-25T00:55:06;6.5;;;2.8;;
38220;SDS011;24023;51.280;7.148;2023-04-25T01:00:11;6.5;;;2.8;;
38220;SDS011;24023;51.280;7.148;2023-04-25T01:05:06;6.5;;;2.8;;
38220;SDS011;24023;51.280;7.148;2023-04-25T01:10:08;7.7;;;2.7;;
38220;SDS011;24023;51.280;7.148;2023-04-25T01:15:06;7.7;;;2.7;;
38220;SDS011;24023;51.280;7.148;2023-04-25T01:25:07;6.1;;;2.6;;
38220;SDS011;24023;51.280;7.148;2023-04-25T01:30:09;6.1;;;2.6;;
38220;SDS011;24023;51.280;7.148;2023-04-25T01:35:10;6.1;;;2.6;;
38220;SDS011;24023;51.280;7.148;2023-04-25T01:40:08;5.8;;;2.3;;
38220;SDS011;24023;51.280;7.148;2023-04-25T01:45:09;5.8;;;2.3;;
38220;SDS011;24023;51.280;7.148;2023-04-25T01:50:08;6.9;;;2.7;;
38220;SDS011;24023;51.280;7.148;2023-04-25T01:55:06;6.9;;;2.7;;
38220;SDS011;24023;51.280;7.148;2023-04-25T02:00:11;6.9;;;2.7;;
38220;SDS011;24023;51.280;7.148;2023-04-25T02:05:06;6.4;;;2.3;;
38220;SDS011;24023;51.280;7.148;2023-04-25T02:10:08;6.4;;;2.3;;
38220;SDS011;24023;51.280;7.148;2023-04-25T02:15:08;6.1;;;2.7;;
38220;SDS011;24023;51.280;7.148;2023-04-25T02:20:08;6.1;;;2.7;;
38220;SDS011;24023;51.280;7.148;2023-04-25T02:25:07;6.1;;;2.8;;
38220;SDS011;24023;51.280;7.148;2023-04-25T02:30:09;6.1;;;2.8;;
38220;SDS011;24023;51.280;7.148;2023-04-25T02:35:06;6.1;;;2.8;;
38220;SDS011;24023;51.280;7.148;2023-04-25T02:40:08;6.8;;;3.6;;
38220;SDS011;24023;51.280;7.148;2023-04-25T02:45:10;6.8;;;3.6;;
38220;SDS011;24023;51.280;7.148;2023-04-25T02:50:08;7.1;;;4.0;;
38220;SDS011;24023;51.280;7.148;2023-04-25T02:55:07;7.1;;;4.0;;
38220;SDS011;24023;51.280;7.148;2023-04-25T03:00:12;7.1;;;4.0;;
38220;SDS011;24023;51.280;7.148;2023-04-25T03:05:07;7.3;;;3.9;;
38220;SDS011;24023;51.280;7.148;2023-04-25T03:10:07;7.3;;;3.9;;
38220;SDS011;24023;51.280;7.148;2023-04-25T03:15:08;7.3;;;3.9;;
38220;SDS011;24023;51.280;7.148;2023-04-25T03:20:09;7.3;;;3.9;;
38220;SDS011;24023;51.280;7.148;2023-04-25T03:25:07;9.8;;;4.9;;
38220;SDS011;24023;51.280;7.148;2023-04-25T03:30:09;9.8;;;4.9;;
38220;SDS011;24023;51.280;7.148;2023-04-25T03:35:07;9.8;;;4.9;;
38220;SDS011;24023;51.280;7.148;2023-04-25T03:40:08;8.4;;;5.1;;
38220;SDS011;24023;51.280;7.148;2023-04-25T03:45:09;8.4;;;5.1;;
38220;SDS011;24023;51.280;7.148;2023-04-25T03:50:08;7.9;;;5.3;;
38220;SDS011;24023;51.280;7.148;2023-04-25T03:55:06;7.9;;;5.3;;
38220;SDS011;24023;51.280;7.148;2023-04-25T04:00:11;7.9;;;5.3;;
38220;SDS011;24023;51.280;7.148;2023-04-25T04:05:06;8.7;;;5.5;;
38220;SDS011;24023;51.280;7.148;2023-04-25T04:10:08;8.7;;;5.5;;
38220;SDS011;24023;51.280;7.148;2023-04-25T04:15:08;12.4;;;7.6;;
38220;SDS011;24023;51.280;7.148;2023-04-25T04:20:09;12.4;;;7.6;;
38220;SDS011;24023;51.280;7.148;2023-04-25T04:25:08;12.4;;;7.6;;
38220;SDS011;24023;51.280;7.148;2023-04-25T04:30:10;13.6;;;7.4;;
38220;SDS011;24023;51.280;7.148;2023-04-25T04:35:07;13.6;;;7.4;;
38220;SDS011;24023;51.280;7.148;2023-04-25T04:40:07;12.1;;;7.0;;
38220;SDS011;24023;51.280;7.148;2023-04-25T04:45:10;12.1;;;7.0;;
38220;SDS011;24023;51.280;7.148;2023-04-25T04:50:09;13.1;;;6.7;;
38220;SDS011;24023;51.280;7.148;2023-04-25T04:55:06;13.1;;;6.7;;
38220;SDS011;24023;51.280;7.148;2023-04-25T05:00:11;13.9;;;6.3;;
38220;SDS011;24023;51.280;7.148;2023-04-25T05:05:06;13.5;;;7.9;;
38220;SDS011;24023;51.280;7.148;2023-04-25T05:10:08;13.5;;;7.9;;
38220;SDS011;24023;51.280;7.148;2023-04-25T05:15:09;11.9;;;6.9;;
38220;SDS011;24023;51.280;7.148;2023-04-25T05:20:09;11.9;;;6.9;;
38220;SDS011;24023;51.280;7.148;2023-04-25T05:25:07;14.8;;;7.3;;
38220;SDS011;24023;51.280;7.148;2023-04-25T05:30:09;14.8;;;7.3;;
38220;SDS011;24023;51.280;7.148;2023-04-25T05:35:07;12.5;;;6.8;;
38220;SDS011;24023;51.280;7.148;2023-04-25T05:40:08;12.5;;;6.8;;
38220;SDS011;24023;51.280;7.148;2023-04-25T05:45:09;12.5;;;6.8;;
38220;SDS011;24023;51.280;7.148;2023-04-25T05:50:07;12.9;;;5.6;;
38220;SDS011;24023;51.280;7.148;2023-04-25T05:55:06;12.9;;;5.6;;
38220;SDS011;24023;51.280;7.148;2023-04-25T06:00:11;13.5;;;5.7;;
38220;SDS011;24023;51.280;7.148;2023-04-25T06:05:06;10.2;;;4.4;;
38220;SDS011;24023;51.280;7.148;2023-04-25T06:10:08;10.2;;;4.4;;
38220;SDS011;24023;51.280;7.148;2023-04-25T06:15:08;13.6;;;4.5;;
38220;SDS011;24023;51.280;7.148;2023-04-25T06:20:08;13.6;;;4.5;;
38220;SDS011;24023;51.280;7.148;2023-04-25T06:25:07;13.6;;;4.5;;
38220;SDS011;24023;51.280;7.148;2023-04-25T06:30:09;12.2;;;4.4;;
38220;SDS011;24023;51.280;7.148;2023-04-25T06:35:06;12.2;;;4.4;;
38220;SDS011;24023;51.280;7.148;2023-04-25T06:40:08;10.7;;;4.2;;
38220;SDS011;24023;51.280;7.148;2023-04-25T06:45:10;9.1;;;4.1;;
38220;SDS011;24023;51.280;7.148;2023-04-25T06:50:08;9.1;;;4.1;;
38220;SDS011;24023;51.280;7.148;2023-04-25T06:55:07;9.1;;;4.1;;
38220;SDS011;24023;51.280;7.148;2023-04-25T07:00:11;9.1;;;4.1;;
38220;SDS011;24023;51.280;7.148;2023-04-25T07:05:06;9.4;;;3.8;;
38220;SDS011;24023;51.280;7.148;2023-04-25T07:10:08;9.4;;;3.8;;
38220;SDS011;24023;51.280;7.148;2023-04-25T07:15:10;9.4;;;3.8;;
38220;SDS011;24023;51.280;7.148;2023-04-25T07:20:09;9.4;;;3.5;;
38220;SDS011;24023;51.280;7.148;2023-04-25T07:25:07;9.4;;;3.5;;
38220;SDS011;24023;51.280;7.148;2023-04-25T07:30:09;9.8;;;2.6;;
38220;SDS011;24023;51.280;7.148;2023-04-25T07:35:07;9.8;;;2.6;;
38220;SDS011;24023;51.280;7.148;2023-04-25T07:40:08;10.4;;;2.6;;
38220;SDS011;24023;51.280;7.148;2023-04-25T07:45:09;10.8;;;2.2;;
38220;SDS011;24023;51.280;7.148;2023-04-25T07:50:08;10.8;;;2.2;;
38220;SDS011;24023;51.280;7.148;2023-04-25T07:55:06;9.6;;;2.6;;
38220;SDS011;24023;51.280;7.148;2023-04-25T08:00:11;9.6;;;2.6;;
38220;SDS011;24023;51.280;7.148;2023-04-25T08:05:08;10.6;;;2.9;;
38220;SDS011;24023;51.280;7.148;2023-04-25T08:10:08;10.6;;;2.9;;
38220;SDS011;24023;51.280;7.148;2023-04-25T08:15:08;8.4;;;2.2;;
38220;SDS011;24023;51.280;7.148;2023-04-25T08:20:09;8.4;;;2.2;;
38220;SDS011;24023;51.280;7.148;2023-04-25T08:25:06;8.4;;;2.2;;
38220;SDS011;24023;51.280;7.148;2023-04-25T08:30:10;7.0;;;2.1;;
38220;SDS011;24023;51.280;7.148;2023-04-25T08:35:07;8.9;;;1.9;;
38220;SDS011;24023;51.280;7.148;2023-04-25T08:40:07;8.9;;;1.9;;
38220;SDS011;24023;51.280;7.148;2023-04-25T08:45:10;8.9;;;1.9;;
38220;SDS011;24023;51.280;7.148;2023-04-25T08:50:08;7.8;;;1.7;;
38220;SDS011;24023;51.280;7.148;2023-04-25T08:55:07;5.3;;;1.5;;
38220;SDS011;24023;51.280;7.148;2023-04-25T09:00:11;5.3;;;1.5;;
38220;SDS011;24023;51.280;7.148;2023-04-25T09:05:07;5.3;;;1.5;;
38220;SDS011;24023;51.280;7.148;2023-04-25T09:10:07;5.4;;;1.2;;
38220;SDS011;24023;51.280;7.148;2023-04-25T09:15:09;5.4;;;1.2;;
38220;SDS011;24023;51.280;7.148;2023-04-25T09:20:09;5.5;;;1.4;;
38220;SDS011;24023;51.280;7.148;2023-04-25T09:25:08;5.5;;;1.4;;
38220;SDS011;24023;51.280;7.148;2023-04-25T09:30:09;4.0;;;1.1;;
38220;SDS011;24023;51.280;7.148;2023-04-25T09:35:06;7.0;;;1.4;;
38220;SDS011;24023;51.280;7.148;2023-04-25T09:40:10;7.0;;;1.4;;
38220;SDS011;24023;51.280;7.148;2023-04-25T09:45:11;4.0;;;1.1;;
38220;SDS011;24023;51.280;7.148;2023-04-25T09:50:13;4.0;;;1.1;;
38220;SDS011;24023;51.280;7.148;2023-04-25T09:55:07;8.6;;;1.9;;
38220;SDS011;24023;51.280;7.148;2023-04-25T10:00:13;8.6;;;1.9;;
38220;SDS011;24023;51.280;7.148;2023-04-25T10:05:07;6.3;;;1.3;;
38220;SDS011;24023;51.280;7.148;2023-04-25T10:10:08;6.3;;;1.3;;
38220;SDS011;24023;51.280;7.148;2023-04-25T10:15:09;5.8;;;1.3;;
38220;SDS011;24023;51.280;7.148;2023-04-25T10:20:11;5.8;;;1.3;;
38220;SDS011;24023;51.280;7.148;2023-04-25T10:25:06;3.9;;;1.1;;
38220;SDS011;24023;51.280;7.148;2023-04-25T10:30:13;3.9;;;1.1;;
38220;SDS011;24023;51.280;7.148;2023-04-25T10:35:11;3.9;;;1.1;;
38220;SDS011;24023;51.280;7.148;2023-04-25T10:40:08;4.3;;;0.9;;
38220;SDS011;24023;51.280;7.148;2023-04-25T10:45:11;4.2;;;1.0;;
38220;SDS011;24023;51.280;7.148;2023-04-25T10:50:08;4.2;;;1.0;;
38220;SDS011;24023;51.280;7.148;2023-04-25T10:55:07;3.3;;;0.8;;
38220;SDS011;24023;51.280;7.148;2023-04-25T11:00:12;3.3;;;0.8;;
38220;SDS011;24023;51.280;7.148;2023-04-25T11:05:06;3.3;;;0.8;;
38220;SDS011;24023;51.280;7.148;2023-04-25T11:10:08;3.2;;;1.0;;
38220;SDS011;24023;51.280;7.148;2023-04-25T11:15:07;3.6;;;0.9;;
38220;SDS011;24023;51.280;7.148;2023-04-25T11:20:11;3.6;;;0.9;;
38220;SDS011;24023;51.280;7.148;2023-04-25T11:25:07;3.6;;;0.9;;
38220;SDS011;24023;51.280;7.148;2023-04-25T11:30:10;3.6;;;0.9;;
38220;SDS011;24023;51.280;7.148;2023-04-25T11:35:07;4.9;;;1.2;;
38220;SDS011;24023;51.280;7.148;2023-04-25T11:40:10;4.9;;;1.2;;
38220;SDS011;24023;51.280;7.148;2023-04-25T11:45:10;4.9;;;1.2;;
38220;SDS011;24023;51.280;7.148;2023-04-25T11:50:08;3.4;;;0.9;;
38220;SDS011;24023;51.280;7.148;2023-04-25T11:55:07;3.4;;;0.9;;
38220;SDS011;24023;51.280;7.148;2023-04-25T12:00:12;3.4;;;0.9;;
38220;SDS011;24023;51.280;7.148;2023-04-25T12:05:07;3.7;;;1.2;;
38220;SDS011;24023;51.280;7.148;2023-04-25T12:10:08;3.7;;;1.2;;
38220;SDS011;24023;51.280;7.148;2023-04-25T12:15:08;3.8;;;1.2;;
38220;SDS011;24023;51.280;7.148;2023-04-25T12:20:08;3.8;;;1.2;;
38220;SDS011;24023;51.280;7.148;2023-04-25T12:25:08;4.0;;;1.2;;
38220;SDS011;24023;51.280;7.148;2023-04-25T12:30:09;4.0;;;1.2;;
38220;SDS011;24023;51.280;7.148;2023-04-25T12:35:06;4.7;;;1.3;;
38220;SDS011;24023;51.280;7.148;2023-04-25T12:40:07;4.7;;;1.3;;
38220;SDS011;24023;51.280;7.148;2023-04-25T12:45:10;3.6;;;1.1;;
38220;SDS011;24023;51.280;7.148;2023-04-25T12:50:07;3.6;;;1.1;;
38220;SDS011;24023;51.280;7.148;2023-04-25T12:55:06;4.0;;;1.3;;
38220;SDS011;24023;51.280;7.148;2023-04-25T13:00:11;4.0;;;1.3;;
38220;SDS011;24023;51.280;7.148;2023-04-25T13:05:06;4.0;;;1.3;;
38220;SDS011;24023;51.280;7.148;2023-04-25T13:10:08;3.8;;;1.4;;
38220;SDS011;24023;51.280;7.148;2023-04-25T13:15:09;3.7;;;1.0;;
38220;SDS011;24023;51.280;7.148;2023-04-25T13:20:09;3.7;;;1.0;;
38220;SDS011;24023;51.280;7.148;2023-04-25T13:25:07;3.8;;;1.0;;
38220;SDS011;24023;51.280;7.148;2023-04-25T13:30:09;3.8;;;1.0;;
38220;SDS011;24023;51.280;7.148;2023-04-25T13:35:07;2.9;;;0.8;;
38220;SDS011;24023;51.280;7.148;2023-04-25T13:40:10;2.9;;;0.8;;
38220;SDS011;24023;51.280;7.148;2023-04-25T13:45:09;2.9;;;0.8;;
38220;SDS011;24023;51.280;7.148;2023-04-25T13:50:08;3.2;;;0.7;;
38220;SDS011;24023;51.280;7.148;2023-04-25T13:55:07;4.2;;;1.2;;
38220;SDS011;24023;51.280;7.148;2023-04-25T14:00:11;4.2;;;1.2;;
38220;SDS011;24023;51.280;7.148;2023-04-25T14:05:07;2.3;;;0.7;;
38220;SDS011;24023;51.280;7.148;2023-04-25T14:10:08;2.3;;;0.7;;
38220;SDS011;24023;51.280;7.148;2023-04-25T14:15:08;3.4;;;0.8;;
38220;SDS011;24023;51.280;7.148;2023-04-25T14:20:08;3.4;;;0.8;;
38220;SDS011;24023;51.280;7.148;2023-04-25T14:25:06;3.4;;;1.1;;
38220;SDS011;24023;51.280;7.148;2023-04-25T14:30:09;3.4;;;1.1;;
38220;SDS011;24023;51.280;7.148;2023-04-25T14:35:07;2.7;;;1.0;;
38220;SDS011;24023;51.280;7.148;2023-04-25T14:40:09;2.7;;;1.0;;
38220;SDS011;24023;51.280;7.148;2023-04-25T14:45:11;3.2;;;0.9;;
38220;SDS011;24023;51.280;7.148;2023-04-25T14:50:09;3.2;;;0.9;;
38220;SDS011;24023;51.280;7.148;2023-04-25T14:55:07;2.8;;;0.9;;
38220;SDS011;24023;51.280;7.148;2023-04-25T15:00:14;2.8;;;0.9;;
38220;SDS011;24023;51.280;7.148;2023-04-25T15:05:06;2.8;;;0.9;;
38220;SDS011;24023;51.280;7.148;2023-04-25T15:10:13;4.1;;;1.2;;
38220;SDS011;24023;51.280;7.148;2023-04-25T15:15:11;4.1;;;1.2;;
38220;SDS011;24023;51.280;7.148;2023-04-25T15:20:10;3.5;;;1.2;;
38220;SDS011;24023;51.280;7.148;2023-04-25T15:25:07;3.8;;;1.2;;
38220;SDS011;24023;51.280;7.148;2023-04-25T15:30:11;3.8;;;1.2;;
38220;SDS011;24023;51.280;7.148;2023-04-25T15:35:07;3.8;;;1.2;;
38220;SDS011;24023;51.280;7.148;2023-04-25T15:40:10;2.7;;;1.1;;
38220;SDS011;24023;51.280;7.148;2023-04-25T15:45:10;2.7;;;1.1;;
38220;SDS011;24023;51.280;7.148;2023-04-25T15:50:09;2.8;;;1.1;;
38220;SDS011;24023;51.280;7.148;2023-04-25T15:55:08;4.8;;;1.1;;
38220;SDS011;24023;51.280;7.148;2023-04-25T16:00:12;4.8;;;1.1;;
38220;SDS011;24023;51.280;7.148;2023-04-25T16:05:08;4.8;;;1.1;;
38220;SDS011;24023;51.280;7.148;2023-04-25T16:10:08;4.3;;;1.1;;
38220;SDS011;24023;51.280;7.148;2023-04-25T16:15:08;4.3;;;1.1;;
38220;SDS011;24023;51.280;7.148;2023-04-25T16:20:10;4.1;;;0.9;;
38220;SDS011;24023;51.280;7.148;2023-04-25T16:25:06;4.1;;;0.9;;
38220;SDS011;24023;51.280;7.148;2023-04-25T16:30:10;5.2;;;1.2;;
38220;SDS011;24023;51.280;7.148;2023-04-25T16:35:06;3.5;;;0.8;;
38220;SDS011;24023;51.280;7.148;2023-04-25T16:40:09;3.5;;;0.8;;
38220;SDS011;24023;51.280;7.148;2023-04-25T16:45:11;3.6;;;1.0;;
38220;SDS011;24023;51.280;7.148;2023-04-25T16:50:08;3.6;;;1.0;;
38220;SDS011;24023;51.280;7.148;2023-04-25T16:55:07;3.2;;;0.9;;
38220;SDS011;24023;51.280;7.148;2023-04-25T17:00:12;3.2;;;0.9;;
38220;SDS011;24023;51.280;7.148;2023-04-25T17:05:07;3.2;;;0.9;;
38220;SDS011;24023;51.280;7.148;2023-04-25T17:10:08;3.9;;;1.2;;
38220;SDS011;24023;51.280;7.148;2023-04-25T17:15:09;5.8;;;2.7;;
38220;SDS011;24023;51.280;7.148;2023-04-25T17:20:09;5.8;;;2.7;;
38220;SDS011;24023;51.280;7.148;2023-04-25T17:25:07;3.3;;;1.1;;
38220;SDS011;24023;51.280;7.148;2023-04-25T17:30:12;3.3;;;1.1;;
38220;SDS011;24023;51.280;7.148;2023-04-25T17:35:06;3.3;;;1.1;;
38220;SDS011;24023;51.280;7.148;2023-04-25T17:40:10;2.2;;;1.1;;
38220;SDS011;24023;51.280;7.148;2023-04-25T17:45:12;6.6;;;2.6;;
38220;SDS011;24023;51.280;7.148;2023-04-25T17:50:08;6.6;;;2.6;;
38220;SDS011;24023;51.280;7.148;2023-04-25T17:55:06;3.3;;;1.1;;
38220;SDS011;24023;51.280;7.148;2023-04-25T18:00:12;3.3;;;1.1;;
38220;SDS011;24023;51.280;7.148;2023-04-25T18:05:08;3.3;;;1.1;;
38220;SDS011;24023;51.280;7.148;2023-04-25T18:10:09;3.3;;;1.1;;
38220;SDS011;24023;51.280;7.148;2023-04-25T18:15:08;2.2;;;0.9;;
38220;SDS011;24023;51.280;7.148;2023-04-25T18:20:09;2.2;;;0.9;;
38220;SDS011;24023;51.280;7.148;2023-04-25T18:25:07;3.0;;;0.9;;
38220;SDS011;24023;51.280;7.148;2023-04-25T18:30:09;3.0;;;0.9;;
38220;SDS011;24023;51.280;7.148;2023-04-25T18:35:09;3.0;;;0.9;;
38220;SDS011;24023;51.280;7.148;2023-04-25T18:40:09;3.0;;;0.7;;
38220;SDS011;24023;51.280;7.148;2023-04-25T18:45:10;3.0;;;0.7;;
38220;SDS011;24023;51.280;7.148;2023-04-25T18:50:08;3.1;;;0.9;;
38220;SDS011;24023;51.280;7.148;2023-04-25T18:55:06;3.1;;;0.9;;
38220;SDS011;24023;51.280;7.148;2023-04-25T19:00:12;3.1;;;0.9;;
38220;SDS011;24023;51.280;7.148;2023-04-25T19:05:07;4.2;;;0.9;;
38220;SDS011;24023;51.280;7.148;2023-04-25T19:10:07;4.2;;;0.9;;
38220;SDS011;24023;51.280;7.148;2023-04-25T19:15:09;4.2;;;0.9;;
38220;SDS011;24023;51.280;7.148;2023-04-25T19:20:07;2.7;;;0.7;;
38220;SDS011;24023;51.280;7.148;2023-04-25T19:25:06;2.7;;;0.7;;
38220;SDS011;24023;51.280;7.148;2023-04-25T19:30:10;3.4;;;1.0;;
38220;SDS011;24023;51.280;7.148;2023-04-25T19:35:08;3.8;;;0.7;;
38220;SDS011;24023;51.280;7.148;2023-04-25T19:40:07;3.8;;;0.7;;
38220;SDS011;24023;51.280;7.148;2023-04-25T19:45:09;3.7;;;0.9;;
38220;SDS011;24023;51.280;7.148;2023-04-25T19:50:08;3.7;;;0.9;;
38220;SDS011;24023;51.280;7.148;2023-04-25T19:55:06;3.7;;;0.9;;
38220;SDS011;24023;51.280;7.148;2023-04-25T20:00:12;3.7;;;1.0;;
38220;SDS011;24023;51.280;7.148;2023-04-25T20:05:07;3.7;;;1.0;;
38220;SDS011;24023;51.280;7.148;2023-04-25T20:10:08;3.3;;;1.1;;
38220;SDS011;24023;51.280;7.148;2023-04-25T20:15:08;5.9;;;1.1;;
38220;SDS011;24023;51.280;7.148;2023-04-25T20:20:09;5.9;;;1.1;;
38220;SDS011;24023;51.280;7.148;2023-04-25T20:25:08;4.0;;;1.2;;
38220;SDS011;24023;51.280;7.148;2023-04-25T20:30:09;4.0;;;1.2;;
38220;SDS011;24023;51.280;7.148;2023-04-25T20:35:06;3.3;;;1.0;;
38220;SDS011;24023;51.280;7.148;2023-04-25T20:40:08;3.3;;;1.0;;
38220;SDS011;24023;51.280;7.148;2023-04-25T20:45:12;3.3;;;1.0;;
38220;SDS011;24023;51.280;7.148;2023-04-25T20:50:08;3.9;;;0.9;;
38220;SDS011;24023;51.280;7.148;2023-04-25T20:55:06;3.9;;;0.9;;
38220;SDS011;24023;51.280;7.148;2023-04-25T21:00:17;3.9;;;0.9;;
38220;SDS011;24023;51.280;7.148;2023-04-25T21:05:07;3.1;;;0.9;;
38220;SDS011;24023;51.280;7.148;2023-04-25T21:10:08;3.1;;;0.9;;
38220;SDS011;24023;51.280;7.148;2023-04-25T21:15:08;3.1;;;0.9;;
38220;SDS011;24023;51.280;7.148;2023-04-25T21:20:09;3.7;;;1.0;;
38220;SDS011;24023;51.280;7.148;2023-04-25T21:25:07;5.9;;;1.4;;
38220;SDS011;24023;51.280;7.148;2023-04-25T21:30:10;5.9;;;1.4;;
38220;SDS011;24023;51.280;7.148;2023-04-25T21:35:06;2.3;;;1.0;;
38220;SDS011;24023;51.280;7.148;2023-04-25T21:40:08;2.3;;;1.0;;
38220;SDS011;24023;51.280;7.148;2023-04-25T21:45:09;2.3;;;1.0;;
38220;SDS011;24023;51.280;7.148;2023-04-25T21:50:08;2.1;;;0.9;;
38220;SDS011;24023;51.280;7.148;2023-04-25T21:55:07;2.1;;;0.9;;
38220;SDS011;24023;51.280;7.148;2023-04-25T22:00:23;3.0;;;1.1;;
38220;SDS011;24023;51.280;7.148;2023-04-25T22:05:08;4.6;;;1.0;;
38220;SDS011;24023;51.280;7.148;2023-04-25T22:10:08;4.6;;;1.0;;
38220;SDS011;24023;51.280;7.148;2023-04-25T22:15:08;2.5;;;1.0;;
38220;SDS011;24023;51.280;7.148;2023-04-25T22:20:12;2.5;;;1.0;;
38220;SDS011;24023;51.280;7.148;2023-04-25T22:25:07;3.1;;;0.9;;
38220;SDS011;24023;51.280;7.148;2023-04-25T22:30:10;3.1;;;0.9;;
38220;SDS011;24023;51.280;7.148;2023-04-25T22:35:07;3.1;;;0.9;;
38220;SDS011;24023;51.280;7.148;2023-04-25T22:40:08;3.6;;;1.0;;
38220;SDS011;24023;51.280;7.148;2023-04-25T22:45:11;3.6;;;1.0;;
38220;SDS011;24023;51.280;7.148;2023-04-25T22:50:11;3.4;;;1.0;;
38220;SDS011;24023;51.280;7.148;2023-04-25T22:55:07;3.4;;;1.0;;
38220;SDS011;24023;51.280;7.148;2023-04-25T23:00:15;3.4;;;1.0;;
38220;SDS011;24023;51.280;7.148;2023-04-25T23:05:06;4.9;;;1.2;;
38220;SDS011;24023;51.280;7.148;2023-04-25T23:10:08;4.9;;;1.2;;
38220;SDS011;24023;51.280;7.148;2023-04-25T23:15:08;4.2;;;1.2;;
38220;SDS011;24023;51.280;7.148;2023-04-25T23:20:10;4.2;;;1.2;;
38220;SDS011;24023;51.280;7.148;2023-04-25T23:25:07;4.2;;;1.2;;
38220;SDS011;24023;51.280;7.148;2023-04-25T23:30:09;4.8;;;1.5;;
38220;SDS011;24023;51.280;7.148;2023-04-25T23:35:07;4.8;;;1.5;;
38220;SDS011;24023;51.280;7.148;2023-04-25T23:40:09;4.8;;;1.5;;
38220;SDS011;24023;51.280;7.148;2023-04-25T23:45:09;3.6;;;1.3;;
38220;SDS011;24023;51.280;7.148;2023-04-25T23:50:08;3.6;;;1.3;;
38220;SDS011;24023;51.280;7.148;2023-04-25T23:55:06;3.6;;;1.3;;
